Time;durP1;ratioP1;P1;durP2;ratioP2;P2;SDS_P1;SDS_P2;PMS_P1;PMS_P2;Temp;Humidity;BMP_temperature;BMP_pressure;BME280_temperature;BME280_humidity;BME280_pressure;Samples;Min_cycle;Max_cycle;Signal;HPM_P1;HPM_P2
2023/02/26 00:01:18;;;;;;;8.82;1.48;;;2.10;99.90;;;;;;6162460;23;20027;-83
2023/02/26 00:03:47;;;;;;;9.00;1.25;;;2.30;99.90;;;;;;6162714;23;20325;-83
2023/02/26 00:06:12;;;;;;;3.72;0.90;;;2.20;99.90;;;;;;6188121;23;20009;-83
2023/02/26 00:08:38;;;;;;;8.02;0.88;;;2.30;99.90;;;;;;6188431;23;20065;-84
2023/02/26 00:11:06;;;;;;;9.90;1.10;;;2.30;99.90;;;;;;6164190;23;20088;-82
2023/02/26 00:13:32;;;;;;;6.75;1.02;;;2.30;99.90;;;;;;6189543;23;20495;-83
2023/02/26 00:16:00;;;;;;;4.60;1.30;;;2.30;99.90;;;;;;6203449;23;20027;-82
2023/02/26 00:18:26;;;;;;;9.60;1.40;;;2.30;99.90;;;;;;6191271;23;20012;-82
2023/02/26 00:20:53;;;;;;;5.30;1.02;;;2.20;99.90;;;;;;6191065;23;20023;-83
2023/02/26 00:23:19;;;;;;;5.18;0.88;;;2.20;99.90;;;;;;6243516;23;20054;-83
2023/02/26 00:25:45;;;;;;;11.43;1.45;;;2.10;99.90;;;;;;6242763;23;20008;-84
2023/02/26 00:28:11;;;;;;;5.57;0.93;;;2.00;99.90;;;;;;6217936;23;20008;-83
2023/02/26 00:30:38;;;;;;;8.05;1.52;;;2.00;99.90;;;;;;6217139;23;20016;-82
2023/02/26 00:33:04;;;;;;;6.50;1.02;;;2.00;99.90;;;;;;6215413;23;20117;-82
2023/02/26 00:35:33;;;;;;;4.05;0.98;;;2.00;99.90;;;;;;6215967;23;20008;-82
2023/02/26 00:38:08;;;;;;;6.15;1.10;;;2.10;99.90;;;;;;6190943;23;20008;-82
2023/02/26 00:40:47;;;;;;;8.13;1.00;;;2.00;99.90;;;;;;6190637;23;20020;-82
2023/02/26 00:43:16;;;;;;;6.63;0.90;;;2.00;99.90;;;;;;6189419;23;20019;-81
2023/02/26 00:46:14;;;;;;;3.25;0.88;;;2.00;99.90;;;;;;6215474;23;20389;-83
2023/02/26 00:48:47;;;;;;;2.33;0.70;;;1.90;99.90;;;;;;6065050;23;20042;-84
2023/02/26 00:51:43;;;;;;;4.07;0.80;;;1.80;99.90;;;;;;6064959;23;20057;-81
2023/02/26 00:54:20;;;;;;;3.45;0.98;;;1.80;99.90;;;;;;6069577;23;20018;-82
2023/02/26 00:56:48;;;;;;;6.38;0.90;;;1.80;99.90;;;;;;6065227;23;20022;-83
2023/02/26 00:59:14;;;;;;;5.60;1.05;;;1.80;99.90;;;;;;6067052;23;20053;-82
2023/02/26 01:01:39;;;;;;;5.15;0.88;;;1.80;99.90;;;;;;6066640;23;20015;-83
2023/02/26 01:04:07;;;;;;;4.35;0.95;;;1.70;99.90;;;;;;6064824;23;20041;-83
2023/02/26 01:06:37;;;;;;;7.28;1.10;;;1.60;99.90;;;;;;6089722;23;20014;-82
2023/02/26 01:09:29;;;;;;;2.47;0.68;;;1.60;99.90;;;;;;6065830;23;20018;-83
2023/02/26 01:11:59;;;;;;;10.10;1.05;;;1.40;99.90;;;;;;6064979;23;20018;-83
2023/02/26 01:14:26;;;;;;;3.97;0.90;;;1.40;99.90;;;;;;6064171;23;20418;-83
2023/02/26 01:17:14;;;;;;;6.38;1.13;;;1.30;99.90;;;;;;6062442;23;20022;-81
2023/02/26 01:19:53;;;;;;;6.45;1.10;;;1.20;99.90;;;;;;6086262;23;20018;-82
2023/02/26 01:22:24;;;;;;;4.68;0.90;;;1.20;99.90;;;;;;6086690;23;20022;-83
2023/02/26 01:24:58;;;;;;;5.70;0.80;;;1.10;99.90;;;;;;6121822;23;20016;-83
2023/02/26 01:27:24;;;;;;;6.25;1.42;;;1.00;99.90;;;;;;6187246;23;20512;-82
2023/02/26 01:29:50;;;;;;;7.57;0.70;;;0.90;99.90;;;;;;6212783;23;20031;-83
2023/02/26 01:32:34;;;;;;;9.68;1.00;;;0.90;99.90;;;;;;6214389;23;20362;-84
2023/02/26 01:35:38;;;;;;;5.85;0.90;;;0.90;99.90;;;;;;6215213;23;20032;-82
2023/02/26 01:38:16;;;;;;;5.68;1.02;;;0.80;99.90;;;;;;6213592;23;20019;-83
2023/02/26 01:40:51;;;;;;;2.42;0.95;;;0.80;99.90;;;;;;6189848;23;20012;-83
2023/02/26 01:43:31;;;;;;;5.85;1.20;;;0.70;99.90;;;;;;6212071;23;20020;-83
2023/02/26 01:46:15;;;;;;;5.20;0.90;;;0.70;99.90;;;;;;6187250;23;20282;-83
2023/02/26 01:48:50;;;;;;;9.10;0.98;;;0.70;99.90;;;;;;6241923;23;20096;-82
2023/02/26 01:51:18;;;;;;;6.97;1.25;;;0.70;99.90;;;;;;6215437;23;20020;-83
2023/02/26 01:53:44;;;;;;;5.97;0.80;;;0.70;99.90;;;;;;6214453;23;20341;-83
2023/02/26 01:56:18;;;;;;;4.45;0.88;;;0.80;99.90;;;;;;6188097;23;20095;-81
2023/02/26 01:58:48;;;;;;;4.07;0.80;;;0.70;99.90;;;;;;6216238;23;20048;-81
2023/02/26 02:01:13;;;;;;;11.52;1.17;;;0.60;99.90;;;;;;6217537;23;20008;-81
2023/02/26 02:04:23;;;;;;;5.43;0.88;;;0.70;99.90;;;;;;6194203;23;20066;-82
2023/02/26 02:06:49;;;;;;;4.50;0.70;;;0.60;99.90;;;;;;6217971;23;20019;-83
2023/02/26 02:09:15;;;;;;;4.15;0.85;;;0.50;99.90;;;;;;6218709;23;20012;-82
2023/02/26 02:12:07;;;;;;;2.97;0.80;;;0.50;99.90;;;;;;6194314;23;20016;-83
2023/02/26 02:14:36;;;;;;;5.72;1.10;;;0.40;99.90;;;;;;6195164;23;20016;-83
2023/02/26 02:17:17;;;;;;;5.35;1.00;;;0.40;99.90;;;;;;6215246;23;20021;-82
2023/02/26 02:20:11;;;;;;;5.78;0.70;;;0.20;99.90;;;;;;6214293;23;20083;-82
2023/02/26 02:22:45;;;;;;;3.28;0.70;;;0.20;99.90;;;;;;6188537;23;20329;-82
2023/02/26 02:25:31;;;;;;;3.90;0.77;;;0.20;99.90;;;;;;6187774;23;20020;-82
2023/02/26 02:28:22;;;;;;;5.20;0.80;;;0.10;99.90;;;;;;6210553;23;20024;-83
2023/02/26 02:30:55;;;;;;;2.70;0.80;;;0.10;99.90;;;;;;6183657;23;20063;-84
2023/02/26 02:33:29;;;;;;;5.90;0.80;;;0.10;99.90;;;;;;6207737;23;20044;-83
2023/02/26 02:36:08;;;;;;;3.40;0.90;;;0.00;99.90;;;;;;6185663;23;20044;-83
2023/02/26 02:38:41;;;;;;;6.38;0.95;;;0.00;99.90;;;;;;6191404;23;20016;-83
2023/02/26 02:41:23;;;;;;;5.63;0.88;;;0.00;99.90;;;;;;6180798;23;20301;-83
2023/02/26 02:43:50;;;;;;;7.90;0.95;;;0.10;99.90;;;;;;6206968;23;20016;-84
2023/02/26 02:46:25;;;;;;;8.32;1.10;;;0.10;99.90;;;;;;6181643;23;20016;-82
2023/02/26 02:49:17;;;;;;;8.75;0.80;;;0.00;99.90;;;;;;6210133;23;20008;-83
2023/02/26 02:51:57;;;;;;;5.15;0.88;;;0.00;99.90;;;;;;6185790;23;20048;-83
2023/02/26 02:54:33;;;;;;;5.38;1.05;;;0.00;99.90;;;;;;6215954;23;20015;-83
2023/02/26 02:57:36;;;;;;;5.55;0.93;;;0.00;99.90;;;;;;6208319;23;20019;-83
2023/02/26 03:00:09;;;;;;;4.40;0.88;;;0.00;99.90;;;;;;6209837;23;20012;-83
2023/02/26 03:02:52;;;;;;;4.47;0.90;;;0.10;99.90;;;;;;6183479;23;20024;-81
2023/02/26 03:05:18;;;;;;;5.07;0.88;;;0.30;99.90;;;;;;6207929;23;20016;-81
2023/02/26 03:07:57;;;;;;;6.47;0.75;;;0.20;99.90;;;;;;6181481;23;20024;-81
2023/02/26 03:10:23;;;;;;;10.68;1.10;;;0.20;99.90;;;;;;6207284;23;20017;-81
2023/02/26 03:12:49;;;;;;;6.07;0.80;;;0.30;99.90;;;;;;6183055;23;20080;-82
2023/02/26 03:15:17;;;;;;;9.18;0.98;;;0.20;99.90;;;;;;6184090;23;20100;-82
2023/02/26 03:18:01;;;;;;;8.95;1.10;;;0.50;99.90;;;;;;6210270;23;20020;-83
2023/02/26 03:20:37;;;;;;;8.13;1.00;;;0.20;99.90;;;;;;6207627;23;20039;-82
2023/02/26 03:23:23;;;;;;;6.88;0.95;;;0.40;99.90;;;;;;6208062;23;20012;-81
2023/02/26 03:26:21;;;;;;;6.13;1.10;;;0.30;99.90;;;;;;6181977;23;20012;-80
2023/02/26 03:28:53;;;;;;;6.60;1.33;;;0.20;99.90;;;;;;6091113;23;20022;-80
2023/02/26 03:31:32;;;;;;;9.90;1.17;;;0.20;99.90;;;;;;6089482;23;20032;-80
2023/02/26 03:34:03;;;;;;;11.40;1.30;;;0.20;99.90;;;;;;6067110;23;20085;-81
2023/02/26 03:36:41;;;;;;;7.47;0.88;;;0.20;99.90;;;;;;6091137;23;20723;-81
2023/02/26 03:39:40;;;;;;;9.25;1.20;;;0.20;99.90;;;;;;6069555;23;20026;-81
2023/02/26 03:42:25;;;;;;;7.93;0.93;;;0.20;99.90;;;;;;6068099;23;20021;-80
2023/02/26 03:44:51;;;;;;;6.80;1.10;;;0.30;99.90;;;;;;6091380;23;20088;-80
2023/02/26 03:47:18;;;;;;;7.05;1.00;;;0.30;99.90;;;;;;6091635;23;20018;-80
2023/02/26 03:49:54;;;;;;;5.30;0.77;;;0.40;99.90;;;;;;6067347;23;20014;-80
2023/02/26 03:52:25;;;;;;;7.10;0.82;;;0.30;99.90;;;;;;6092416;23;20485;-80
2023/02/26 03:55:05;;;;;;;11.57;1.13;;;0.40;99.90;;;;;;6093401;23;20367;-80
2023/02/26 03:57:31;;;;;;;7.28;1.20;;;0.30;99.90;;;;;;6067555;23;20018;-80
2023/02/26 03:59:57;;;;;;;6.75;1.23;;;0.40;99.90;;;;;;6069700;23;20417;-81
2023/02/26 04:02:32;;;;;;;5.97;1.00;;;0.40;99.90;;;;;;6118331;23;20014;-81
2023/02/26 04:08:39;;;;;;;5.20;0.85;;;0.60;99.90;;;;;;6212833;23;20428;-82
2023/02/26 04:11:07;;;;;;;4.60;0.90;;;0.60;99.90;;;;;;6210989;23;20027;-82
2023/02/26 04:13:33;;;;;;;6.45;1.00;;;0.50;99.90;;;;;;6186483;23;20051;-82
2023/02/26 04:15:59;;;;;;;4.78;1.00;;;0.60;99.90;;;;;;6211747;23;20021;-82
2023/02/26 04:18:25;;;;;;;6.85;1.00;;;0.70;99.90;;;;;;6212151;23;20078;-83
2023/02/26 04:20:51;;;;;;;6.70;0.77;;;0.50;99.90;;;;;;6210069;23;20020;-82
2023/02/26 04:23:18;;;;;;;4.18;0.95;;;0.50;99.90;;;;;;6211456;23;20021;-82
2023/02/26 04:25:44;;;;;;;5.88;0.88;;;0.60;99.90;;;;;;6186484;23;20030;-83
2023/02/26 04:28:10;;;;;;;9.27;0.90;;;0.50;99.90;;;;;;6209295;23;20388;-82
2023/02/26 04:30:36;;;;;;;6.00;0.82;;;0.40;99.90;;;;;;6209842;23;20016;-81
2023/02/26 04:33:02;;;;;;;6.22;0.70;;;0.50;99.90;;;;;;6190675;23;20337;-82
2023/02/26 04:35:28;;;;;;;7.45;1.05;;;0.30;99.90;;;;;;6183266;23;20016;-81
2023/02/26 04:37:53;;;;;;;6.55;0.80;;;0.40;99.90;;;;;;6183277;23;20091;-82
2023/02/26 04:40:19;;;;;;;8.60;0.73;;;0.40;99.90;;;;;;6183493;23;20016;-82
2023/02/26 04:42:45;;;;;;;6.40;0.90;;;0.30;99.90;;;;;;6184100;23;20418;-82
2023/02/26 04:45:11;;;;;;;5.70;0.90;;;0.40;99.90;;;;;;6212569;23;20008;-82
2023/02/26 04:47:36;;;;;;;5.72;0.90;;;0.30;99.90;;;;;;6207491;23;20115;-82
2023/02/26 04:50:03;;;;;;;7.85;0.75;;;0.30;99.90;;;;;;6209788;23;20043;-82
2023/02/26 04:52:29;;;;;;;7.63;1.27;;;0.30;99.90;;;;;;6183223;23;20020;-81
2023/02/26 04:54:54;;;;;;;5.95;0.70;;;0.20;99.90;;;;;;6184715;23;20162;-82
2023/02/26 04:57:20;;;;;;;5.65;1.02;;;0.30;99.90;;;;;;6183818;23;20020;-81
2023/02/26 04:59:46;;;;;;;4.45;0.73;;;0.30;99.90;;;;;;6183601;23;20017;-82
2023/02/26 05:02:12;;;;;;;7.28;0.93;;;0.40;99.90;;;;;;6183119;23;20096;-81
2023/02/26 05:04:37;;;;;;;3.63;1.02;;;0.30;99.90;;;;;;6214166;23;20017;-83
2023/02/26 05:07:03;;;;;;;4.47;0.70;;;0.40;99.90;;;;;;6179889;23;20012;-81
2023/02/26 05:09:29;;;;;;;4.22;0.82;;;0.30;99.90;;;;;;6181834;23;20388;-81
2023/02/26 05:11:54;;;;;;;6.18;0.90;;;0.30;99.90;;;;;;6204298;23;20023;-84
2023/02/26 05:14:20;;;;;;;5.28;0.82;;;0.20;99.90;;;;;;6205353;23;20027;-81
2023/02/26 05:16:46;;;;;;;4.55;0.60;;;0.10;99.90;;;;;;6207376;23;20020;-82
2023/02/26 05:19:11;;;;;;;6.47;0.82;;;0.10;99.90;;;;;;6208812;23;20040;-82
2023/02/26 05:21:37;;;;;;;6.55;0.70;;;0.10;99.90;;;;;;6206037;23;20112;-82
2023/02/26 05:24:03;;;;;;;4.22;1.00;;;0.00;99.90;;;;;;6206337;23;20027;-82
2023/02/26 05:26:29;;;;;;;5.15;0.80;;;0.10;99.90;;;;;;6208601;23;20024;-82
2023/02/26 05:28:55;;;;;;;5.82;1.10;;;0.10;99.90;;;;;;6207042;23;20705;-82
2023/02/26 05:31:20;;;;;;;4.90;0.90;;;0.20;99.90;;;;;;6205902;23;20056;-82
2023/02/26 05:33:46;;;;;;;5.97;1.05;;;0.10;99.90;;;;;;6180322;23;20059;-81
2023/02/26 05:36:12;;;;;;;5.15;1.17;;;0.00;99.90;;;;;;6207946;23;20023;-81
2023/02/26 05:38:37;;;;;;;3.13;0.57;;;0.00;99.90;;;;;;6179479;23;20093;-82
2023/02/26 05:41:03;;;;;;;6.00;0.85;;;0.00;99.90;;;;;;6203856;23;20491;-82
2023/02/26 05:43:29;;;;;;;10.68;0.88;;;0.00;99.90;;;;;;6206264;23;20535;-81
2023/02/26 05:45:55;;;;;;;8.43;1.00;;;0.10;99.90;;;;;;6180518;23;20087;-82
2023/02/26 05:48:21;;;;;;;4.25;1.00;;;0.00;99.90;;;;;;6184667;23;20016;-81
2023/02/26 05:50:50;;;;;;;14.82;0.90;;;0.10;99.90;;;;;;6212498;23;20318;-81
2023/02/26 05:53:17;;;;;;;5.28;0.77;;;0.10;99.90;;;;;;6208766;23;20016;-82
2023/02/26 05:55:42;;;;;;;8.25;1.33;;;0.00;99.90;;;;;;6187811;23;20455;-81
2023/02/26 05:58:08;;;;;;;3.42;0.77;;;0.00;99.90;;;;;;6208095;23;20028;-82
2023/02/26 06:00:34;;;;;;;7.65;1.33;;;0.00;99.90;;;;;;6209704;23;20074;-82
2023/02/26 06:02:59;;;;;;;5.32;0.90;;;0.00;99.90;;;;;;6184684;23;20492;-82
2023/02/26 06:09:07;;;;;;;6.60;1.10;;;-0.10;99.90;;;;;;6219516;23;20085;-83
2023/02/26 06:11:32;;;;;;;5.07;0.75;;;0.00;99.90;;;;;;6183788;23;20016;-82
2023/02/26 06:13:58;;;;;;;8.30;1.20;;;-0.10;99.90;;;;;;6183839;23;20073;-82
2023/02/26 06:16:24;;;;;;;6.82;0.90;;;-0.20;99.90;;;;;;6183299;23;20155;-82
2023/02/26 06:18:50;;;;;;;5.25;0.77;;;-0.20;99.90;;;;;;6183540;23;20415;-82
2023/02/26 06:21:16;;;;;;;5.45;0.70;;;-0.20;99.90;;;;;;6182435;23;20096;-82
2023/02/26 06:23:42;;;;;;;5.57;1.17;;;-0.20;99.90;;;;;;6210764;23;20364;-82
2023/02/26 06:26:08;;;;;;;8.57;0.85;;;-0.20;99.90;;;;;;6210161;23;20032;-82
2023/02/26 06:28:34;;;;;;;6.75;1.20;;;-0.20;99.90;;;;;;6186930;23;20008;-83
2023/02/26 06:30:59;;;;;;;6.47;0.90;;;-0.30;99.90;;;;;;6186635;23;20087;-82
2023/02/26 06:33:25;;;;;;;5.80;1.05;;;-0.10;99.90;;;;;;6182947;23;20009;-83
2023/02/26 06:35:51;;;;;;;5.05;1.02;;;-0.30;99.90;;;;;;6182390;23;20333;-83
2023/02/26 06:38:17;;;;;;;4.93;0.70;;;-0.30;99.90;;;;;;6212066;23;20421;-84
2023/02/26 06:40:44;;;;;;;4.97;0.70;;;-0.30;99.90;;;;;;6208707;23;20013;-84
2023/02/26 06:43:10;;;;;;;5.45;1.05;;;-0.40;99.90;;;;;;6181968;23;20023;-83
2023/02/26 06:45:39;;;;;;;5.93;0.93;;;-0.30;99.90;;;;;;6183715;23;20013;-83
2023/02/26 06:48:04;;;;;;;5.78;0.95;;;-0.10;99.90;;;;;;6182691;23;20017;-84
2023/02/26 06:50:30;;;;;;;3.95;0.85;;;-0.30;99.90;;;;;;6185378;23;20019;-84
2023/02/26 06:52:56;;;;;;;6.32;0.82;;;-0.30;99.90;;;;;;6207232;23;20019;-84
2023/02/26 06:55:25;;;;;;;6.50;0.70;;;-0.30;99.90;;;;;;6208882;23;20116;-83
2023/02/26 06:57:56;;;;;;;3.40;0.90;;;-0.30;99.90;;;;;;6207816;23;20451;-83
2023/02/26 07:00:23;;;;;;;5.85;0.95;;;-0.20;99.90;;;;;;6181506;23;20017;-83
2023/02/26 07:02:49;;;;;;;8.48;1.05;;;-0.10;99.90;;;;;;6207523;23;20071;-83
2023/02/26 07:05:15;;;;;;;6.22;1.10;;;-0.30;99.90;;;;;;6184140;23;20090;-83
2023/02/26 07:07:42;;;;;;;7.93;0.90;;;-0.10;99.90;;;;;;6182164;23;20019;-84
2023/02/26 07:10:09;;;;;;;4.43;0.65;;;-0.20;99.90;;;;;;6207250;23;20170;-83
2023/02/26 07:12:34;;;;;;;5.18;0.70;;;-0.10;99.90;;;;;;6180959;23;20703;-83
2023/02/26 07:15:00;;;;;;;6.88;0.80;;;0.00;99.90;;;;;;6208123;23;20150;-83
2023/02/26 07:17:26;;;;;;;5.68;0.95;;;0.00;99.90;;;;;;6180005;23;20372;-84
2023/02/26 07:19:55;;;;;;;8.13;0.60;;;-0.10;99.90;;;;;;6181624;23;20023;-83
2023/02/26 07:22:21;;;;;;;9.65;0.90;;;0.00;99.90;;;;;;6181725;23;20052;-84
2023/02/26 07:24:46;;;;;;;5.22;0.77;;;0.10;99.90;;;;;;6180942;23;20027;-82
2023/02/26 07:27:12;;;;;;;4.43;0.60;;;0.10;99.90;;;;;;6179551;23;20013;-82
2023/02/26 07:29:38;;;;;;;2.30;0.80;;;0.10;99.90;;;;;;6180411;23;20012;-83
2023/02/26 07:32:04;;;;;;;7.68;0.90;;;0.20;99.90;;;;;;6207336;23;20669;-83
2023/02/26 07:34:30;;;;;;;5.32;0.82;;;0.20;99.90;;;;;;6182538;23;20012;-83
2023/02/26 07:36:57;;;;;;;8.35;1.20;;;0.20;99.90;;;;;;6182183;23;20025;-83
2023/02/26 07:39:24;;;;;;;4.45;0.70;;;0.30;99.90;;;;;;6181484;23;20013;-82
2023/02/26 07:41:50;;;;;;;6.15;0.98;;;0.30;99.90;;;;;;6179929;23;20013;-83
2023/02/26 07:44:15;;;;;;;3.80;0.80;;;0.30;99.90;;;;;;6181956;23;20071;-82
2023/02/26 07:46:41;;;;;;;3.80;0.73;;;0.30;99.90;;;;;;6205424;23;20009;-83
2023/02/26 07:49:07;;;;;;;8.63;1.10;;;0.30;99.90;;;;;;6180991;23;20094;-82
2023/02/26 07:51:32;;;;;;;9.80;1.10;;;0.50;99.90;;;;;;6183035;23;20044;-83
2023/02/26 07:53:58;;;;;;;12.98;1.02;;;0.40;99.90;;;;;;6180594;23;20094;-82
2023/02/26 07:56:24;;;;;;;4.32;1.00;;;0.50;99.90;;;;;;6203607;23;20100;-82
2023/02/26 07:58:50;;;;;;;2.55;0.70;;;0.40;99.90;;;;;;6178772;23;20013;-82
2023/02/26 08:01:16;;;;;;;5.97;0.88;;;0.50;99.90;;;;;;6179136;23;20047;-83
2023/02/26 08:03:41;;;;;;;3.63;0.80;;;0.50;99.90;;;;;;6181188;23;20013;-83
2023/02/26 08:06:08;;;;;;;7.20;1.23;;;0.50;99.90;;;;;;6206081;23;20029;-82
2023/02/26 08:08:34;;;;;;;4.97;0.93;;;0.60;99.90;;;;;;6207102;23;20068;-83
2023/02/26 08:11:00;;;;;;;3.78;0.75;;;0.50;99.90;;;;;;6180767;23;20015;-82
2023/02/26 08:13:26;;;;;;;4.90;0.80;;;0.50;99.90;;;;;;6180576;23;20441;-83
2023/02/26 08:15:52;;;;;;;5.50;0.85;;;0.50;99.90;;;;;;6208262;23;20051;-83
2023/02/26 08:18:18;;;;;;;4.05;0.85;;;0.60;99.90;;;;;;6209070;23;20024;-82
2023/02/26 08:20:44;;;;;;;5.32;1.50;;;0.60;99.90;;;;;;6209815;23;20525;-81
2023/02/26 08:23:11;;;;;;;3.88;0.90;;;0.70;99.90;;;;;;6185008;23;20013;-82
2023/02/26 08:25:38;;;;;;;4.00;0.88;;;0.80;99.90;;;;;;6209223;23;20020;-82
2023/02/26 08:28:04;;;;;;;4.00;0.73;;;1.20;99.90;;;;;;6180565;23;20394;-81
2023/02/26 08:30:30;;;;;;;6.93;1.33;;;1.40;99.90;;;;;;6184755;23;20154;-82
2023/02/26 08:32:56;;;;;;;8.23;1.38;;;1.50;99.90;;;;;;6185400;23;20019;-82
2023/02/26 08:35:50;;;;;;;4.18;0.80;;;1.60;99.90;;;;;;6210091;23;20369;-82
2023/02/26 08:38:19;;;;;;;8.70;1.27;;;1.80;99.90;;;;;;6208149;23;20459;-81
2023/02/26 08:40:54;;;;;;;7.30;1.05;;;1.90;99.90;;;;;;6184539;23;20067;-81
2023/02/26 08:43:20;;;;;;;7.07;1.10;;;2.10;99.90;;;;;;6184617;23;20019;-81
2023/02/26 08:45:49;;;;;;;3.00;0.60;;;2.20;99.90;;;;;;6186010;23;20407;-82
2023/02/26 08:48:23;;;;;;;5.07;0.80;;;2.20;99.90;;;;;;6184563;23;20124;-82
2023/02/26 08:50:49;;;;;;;6.30;1.13;;;2.40;99.90;;;;;;6180254;23;20016;-82
2023/02/26 08:53:18;;;;;;;5.82;1.05;;;2.40;99.90;;;;;;6178898;23;20024;-83
2023/02/26 08:55:50;;;;;;;8.00;1.27;;;2.40;99.90;;;;;;6178856;23;20020;-83
2023/02/26 08:58:16;;;;;;;5.32;0.90;;;2.50;99.90;;;;;;6205083;23;20009;-82
2023/02/26 09:00:42;;;;;;;4.22;0.80;;;2.60;99.90;;;;;;6185451;23;20031;-83
2023/02/26 09:03:10;;;;;;;5.78;0.90;;;2.60;99.90;;;;;;6183250;23;20017;-84
2023/02/26 09:05:37;;;;;;;4.82;0.80;;;2.70;99.90;;;;;;6180848;23;20424;-81
2023/02/26 09:08:03;;;;;;;5.57;0.95;;;2.90;99.90;;;;;;6205314;23;20453;-81
2023/02/26 09:10:29;;;;;;;2.90;0.80;;;2.90;99.90;;;;;;6160175;23;20012;-81
2023/02/26 09:12:55;;;;;;;4.53;0.90;;;3.00;99.90;;;;;;6211522;23;20488;-80
2023/02/26 09:15:22;;;;;;;7.03;1.00;;;3.10;99.90;;;;;;6181210;23;20091;-80
2023/02/26 09:17:47;;;;;;;4.90;0.75;;;3.10;99.90;;;;;;6182877;23;20016;-80
2023/02/26 09:20:17;;;;;;;8.55;0.82;;;3.20;99.90;;;;;;6184090;23;20008;-81
2023/02/26 09:22:42;;;;;;;5.28;0.90;;;3.20;99.90;;;;;;6234132;23;20421;-81
2023/02/26 09:25:09;;;;;;;5.97;0.88;;;3.30;99.90;;;;;;6209352;23;20020;-81
2023/02/26 09:27:35;;;;;;;5.68;0.85;;;3.40;99.90;;;;;;6246092;23;20012;-81
2023/02/26 09:30:02;;;;;;;4.50;0.85;;;3.50;99.90;;;;;;6211860;23;20018;-80
2023/02/26 09:32:27;;;;;;;4.90;0.80;;;3.40;99.90;;;;;;6190967;23;20020;-81
2023/02/26 09:34:53;;;;;;;3.95;1.00;;;3.40;99.90;;;;;;6224488;23;20054;-82
2023/02/26 09:37:38;;;;;;;4.25;0.82;;;3.50;99.90;;;;;;6224761;23;20020;-81
2023/02/26 09:40:05;;;;;;;5.70;0.70;;;3.60;99.90;;;;;;6195519;23;20110;-83
2023/02/26 09:42:36;;;;;;;5.35;1.05;;;3.60;99.90;;;;;;6239369;23;20009;-83
2023/02/26 09:45:03;;;;;;;6.75;1.00;;;3.70;99.90;;;;;;6190680;23;20023;-82
2023/02/26 09:47:39;;;;;;;6.00;1.00;;;3.70;99.90;;;;;;6240340;23;20015;-82
2023/02/26 09:50:48;;;;;;;4.75;0.80;;;3.90;99.90;;;;;;6190787;23;20693;-82
2023/02/26 09:53:23;;;;;;;5.43;0.90;;;3.90;99.90;;;;;;6089346;23;20019;-83
2023/02/26 09:55:51;;;;;;;3.50;0.90;;;4.00;99.90;;;;;;6063654;23;20074;-82
2023/02/26 09:58:32;;;;;;;7.18;1.00;;;4.10;99.90;;;;;;6062846;23;20024;-81
2023/02/26 10:01:32;;;;;;;8.85;1.10;;;4.30;99.90;;;;;;6038894;23;20018;-79
2023/02/26 10:04:16;;;;;;;5.57;0.90;;;4.40;99.90;;;;;;6037028;23;20161;-79
2023/02/26 10:06:44;;;;;;;5.00;0.88;;;4.40;99.90;;;;;;6085885;23;20042;-79
2023/02/26 10:09:48;;;;;;;5.70;0.80;;;4.50;99.90;;;;;;6063184;23;20018;-80
2023/02/26 10:12:21;;;;;;;6.07;0.85;;;4.50;99.90;;;;;;6037327;23;20026;-79
2023/02/26 10:15:16;;;;;;;3.60;0.95;;;4.70;99.90;;;;;;6063340;23;20481;-84
2023/02/26 10:18:00;;;;;;;5.65;0.75;;;4.40;99.90;;;;;;6039788;23;20029;-80
2023/02/26 10:20:35;;;;;;;5.30;0.82;;;4.40;99.90;;;;;;6040678;23;20171;-83
2023/02/26 10:23:18;;;;;;;5.70;1.05;;;4.40;99.90;;;;;;6043963;23;20469;-82
2023/02/26 10:26:05;;;;;;;4.18;0.77;;;4.40;99.90;;;;;;6097328;23;20441;-83
2023/02/26 10:28:57;;;;;;;5.53;0.73;;;4.40;99.90;;;;;;6098413;23;20076;-81
2023/02/26 10:31:43;;;;;;;4.20;1.00;;;4.60;99.90;;;;;;6095402;23;20024;-83
2023/02/26 10:34:46;;;;;;;6.13;0.95;;;4.70;99.90;;;;;;6096234;23;20029;-85
2023/02/26 10:37:51;;;;;;;3.60;0.90;;;4.60;99.90;;;;;;6098835;23;20431;-81
2023/02/26 10:40:43;;;;;;;5.90;0.93;;;4.50;99.90;;;;;;6122209;23;20457;-81
2023/02/26 10:43:34;;;;;;;3.13;0.85;;;4.70;99.90;;;;;;6113864;23;20045;-81
2023/02/26 10:46:36;;;;;;;7.90;1.10;;;4.80;99.90;;;;;;6094681;23;20070;-81
2023/02/26 10:49:13;;;;;;;7.95;1.27;;;4.60;99.90;;;;;;6124256;23;20055;-81
2023/02/26 10:51:39;;;;;;;5.45;1.00;;;4.60;99.90;;;;;;6123222;23;20468;-80
2023/02/26 10:54:28;;;;;;;6.00;0.85;;;4.60;99.90;;;;;;6098481;23;20494;-81
2023/02/26 10:56:54;;;;;;;3.65;0.77;;;4.70;99.90;;;;;;6098142;23;20154;-81
2023/02/26 10:59:19;;;;;;;5.63;0.82;;;4.90;99.90;;;;;;6124720;23;20612;-81
2023/02/26 11:01:47;;;;;;;7.63;1.08;;;4.80;99.90;;;;;;6124079;23;20017;-80
2023/02/26 11:04:18;;;;;;;3.95;0.90;;;5.00;99.90;;;;;;6071764;23;20028;-81
2023/02/26 11:06:46;;;;;;;7.40;0.98;;;5.10;99.90;;;;;;6090930;23;20469;-82
2023/02/26 11:09:37;;;;;;;5.60;1.00;;;5.30;99.90;;;;;;6094763;23;20577;-83
2023/02/26 11:12:12;;;;;;;5.22;1.00;;;5.40;99.90;;;;;;6128169;23;20013;-84
2023/02/26 11:14:39;;;;;;;6.13;0.88;;;5.30;99.90;;;;;;6099570;23;20108;-83
2023/02/26 11:17:16;;;;;;;9.05;1.10;;;5.20;99.90;;;;;;6144709;23;20013;-82
2023/02/26 11:19:52;;;;;;;5.10;0.93;;;5.00;99.90;;;;;;6139355;23;20024;-83
2023/02/26 11:22:18;;;;;;;3.67;1.00;;;4.80;99.90;;;;;;6157248;23;20424;-82
2023/02/26 11:24:48;;;;;;;4.90;0.77;;;5.00;99.90;;;;;;6158253;23;20012;-83
2023/02/26 11:27:26;;;;;;;6.45;0.70;;;5.10;99.90;;;;;;6156712;23;20715;-82
2023/02/26 11:29:58;;;;;;;4.93;1.10;;;4.80;99.90;;;;;;6208711;23;20017;-81
2023/02/26 11:32:33;;;;;;;6.38;1.20;;;4.90;99.90;;;;;;6210921;23;20095;-81
2023/02/26 11:34:59;;;;;;;6.30;0.80;;;5.00;99.90;;;;;;6182737;23;20051;-81
2023/02/26 11:37:39;;;;;;;5.65;1.00;;;5.10;99.90;;;;;;6185371;23;20012;-82
2023/02/26 11:40:17;;;;;;;10.70;1.48;;;5.10;99.90;;;;;;6162126;23;20174;-81
2023/02/26 11:42:57;;;;;;;7.85;0.93;;;5.10;99.90;;;;;;6185808;23;20012;-82
2023/02/26 11:45:23;;;;;;;5.68;0.90;;;5.30;99.90;;;;;;6184290;23;20024;-81
2023/02/26 11:48:01;;;;;;;7.88;1.27;;;5.20;99.90;;;;;;6202177;23;20016;-81
2023/02/26 11:50:28;;;;;;;6.30;1.20;;;5.30;99.90;;;;;;6162166;23;20009;-81
2023/02/26 11:52:56;;;;;;;6.50;0.90;;;5.40;99.90;;;;;;6162168;23;20009;-82
2023/02/26 11:55:34;;;;;;;9.32;1.00;;;5.10;99.90;;;;;;6186482;23;20044;-81
2023/02/26 11:58:00;;;;;;;13.80;1.20;;;4.90;99.90;;;;;;6160912;23;20317;-83
2023/02/26 12:00:36;;;;;;;8.52;1.27;;;5.10;99.90;;;;;;6161212;23;20024;-83
2023/02/26 12:03:06;;;;;;;8.25;1.58;;;5.30;99.90;;;;;;6186845;23;20016;-81
2023/02/26 12:05:33;;;;;;;5.53;1.13;;;5.40;99.90;;;;;;6160973;23;20013;-82
2023/02/26 12:07:59;;;;;;;8.52;1.10;;;5.50;99.90;;;;;;6161545;23;20352;-82
2023/02/26 12:10:38;;;;;;;3.25;0.80;;;5.50;99.90;;;;;;6160381;23;20034;-81
2023/02/26 12:13:25;;;;;;;16.30;1.00;;;5.50;99.90;;;;;;6160968;23;20017;-82
2023/02/26 12:16:03;;;;;;;5.82;1.13;;;5.40;99.90;;;;;;6187164;23;20071;-82
2023/02/26 12:18:37;;;;;;;4.20;1.08;;;5.50;99.90;;;;;;6185964;23;20021;-81
2023/02/26 12:21:06;;;;;;;7.93;1.08;;;5.60;99.90;;;;;;6186998;23;20096;-81
2023/02/26 12:23:43;;;;;;;5.43;1.10;;;5.50;99.90;;;;;;6161367;23;20441;-82
2023/02/26 12:26:25;;;;;;;9.45;1.30;;;5.10;99.90;;;;;;6160569;23;20008;-82
2023/02/26 12:29:12;;;;;;;8.23;1.30;;;5.50;99.90;;;;;;6185561;23;20012;-82
2023/02/26 12:31:52;;;;;;;9.55;1.52;;;5.60;99.90;;;;;;6160248;23;20043;-81
2023/02/26 12:34:31;;;;;;;6.65;1.33;;;5.80;99.90;;;;;;6165378;23;20698;-83
2023/02/26 12:37:17;;;;;;;6.20;1.30;;;5.80;99.90;;;;;;6185894;23;20091;-82
2023/02/26 12:40:01;;;;;;;8.88;1.48;;;5.60;99.90;;;;;;6186252;23;20051;-83
2023/02/26 12:42:50;;;;;;;12.43;1.45;;;5.80;99.90;;;;;;6185456;23;20020;-83
2023/02/26 12:45:52;;;;;;;6.40;1.10;;;5.90;99.90;;;;;;6184272;23;20074;-82
2023/02/26 12:48:46;;;;;;;9.82;1.73;;;5.70;99.90;;;;;;6117981;23;20014;-82
2023/02/26 12:51:33;;;;;;;12.63;1.45;;;5.30;99.90;;;;;;6102291;23;20049;-82
2023/02/26 12:54:10;;;;;;;6.85;1.08;;;5.40;99.90;;;;;;6091553;23;20051;-82
2023/02/26 12:56:58;;;;;;;7.40;1.10;;;5.80;99.90;;;;;;6089830;23;20025;-82
2023/02/26 12:59:52;;;;;;;7.25;1.10;;;5.70;99.90;;;;;;6067715;23;20040;-82
2023/02/26 13:02:18;;;;;;;6.32;1.02;;;5.60;99.90;;;;;;6114716;23;20013;-83
2023/02/26 13:04:55;;;;;;;8.60;1.23;;;5.50;99.90;;;;;;6114097;23;20086;-82
2023/02/26 13:07:48;;;;;;;6.93;0.93;;;5.50;99.90;;;;;;6114432;23;20093;-81
2023/02/26 13:10:27;;;;;;;5.25;1.10;;;5.70;99.90;;;;;;6091039;23;20164;-81
2023/02/26 13:13:07;;;;;;;8.45;1.45;;;5.70;99.90;;;;;;6087589;23;20018;-82
2023/02/26 13:15:49;;;;;;;12.10;1.55;;;5.70;99.90;;;;;;6115143;23;20130;-81
2023/02/26 13:18:24;;;;;;;8.95;1.50;;;5.40;99.90;;;;;;6114072;23;20105;-81
2023/02/26 13:21:04;;;;;;;12.82;1.55;;;5.10;99.90;;;;;;6113934;23;20026;-83
2023/02/26 13:23:52;;;;;;;11.52;1.10;;;5.00;99.90;;;;;;6088614;23;20093;-82
2023/02/26 13:26:20;;;;;;;5.47;1.10;;;5.30;99.90;;;;;;6181470;23;20115;-84
2023/02/26 13:28:57;;;;;;;8.43;1.73;;;5.20;99.90;;;;;;6181920;23;20119;-82
2023/02/26 13:31:41;;;;;;;14.68;1.50;;;5.20;99.90;;;;;;6157904;23;20071;-83